createdAt,value
2023-04-26T00:02:09.488Z,12.97
2023-04-26T00:04:37.668Z,12.92
2023-04-26T00:07:05.702Z,13.02
2023-04-26T00:09:33.620Z,13.00
2023-04-26T00:12:01.984Z,12.96
2023-04-26T00:14:29.931Z,12.94
2023-04-26T00:16:57.877Z,12.96
2023-04-26T00:19:27.741Z,12.98
2023-04-26T00:21:55.855Z,12.99
2023-04-26T00:24:23.819Z,13.02
2023-04-26T00:26:54.437Z,12.90
2023-04-26T00:29:22.363Z,12.85
2023-04-26T00:31:50.379Z,12.88
2023-04-26T00:34:18.352Z,12.93
2023-04-26T00:36:47.649Z,12.94
2023-04-26T00:39:16.221Z,12.96
2023-04-26T00:41:44.185Z,12.94
2023-04-26T00:44:12.087Z,12.94
2023-04-26T00:46:40.071Z,12.99
2023-04-26T00:49:08.132Z,12.98
2023-04-26T00:51:36.146Z,12.92
2023-04-26T00:54:05.547Z,12.92
2023-04-26T00:56:33.458Z,12.93
2023-04-26T00:59:01.454Z,12.99
2023-04-26T01:01:29.511Z,12.99
2023-04-26T01:03:57.719Z,13.02
2023-04-26T01:06:25.825Z,13.00
2023-04-26T01:08:53.995Z,12.95
2023-04-26T01:11:23.552Z,13.02
2023-04-26T01:13:51.561Z,13.08
2023-04-26T01:16:19.554Z,13.08
2023-04-26T01:18:52.729Z,13.07
2023-04-26T01:21:22.295Z,13.02
2023-04-26T01:23:51.669Z,13.03
2023-04-26T01:26:19.638Z,12.94
2023-04-26T01:28:49.645Z,13.01
2023-04-26T01:31:17.705Z,12.96
2023-04-26T01:33:45.766Z,12.98
2023-04-26T01:36:13.695Z,12.94
2023-04-26T01:38:41.629Z,13.06
2023-04-26T01:41:10.965Z,13.12
2023-04-26T01:43:38.923Z,13.08
2023-04-26T01:46:07.228Z,13.05
2023-04-26T01:48:35.153Z,12.99
2023-04-26T01:51:03.081Z,13.05
2023-04-26T01:53:30.997Z,12.98
2023-04-26T01:56:02.021Z,12.96
2023-04-26T01:58:31.347Z,12.88
2023-04-26T02:01:07.753Z,12.86
2023-04-26T02:03:35.902Z,12.73
2023-04-26T02:06:04.017Z,12.70
2023-04-26T02:08:31.945Z,12.64
2023-04-26T02:10:59.877Z,12.56
2023-04-26T02:13:27.797Z,12.68
2023-04-26T02:15:57.351Z,12.66
2023-04-26T02:18:25.267Z,12.66
2023-04-26T02:20:53.246Z,12.63
2023-04-26T02:23:21.160Z,12.73
2023-04-26T02:25:49.757Z,12.63
2023-04-26T02:28:17.685Z,12.67
2023-04-26T02:30:45.757Z,12.67
2023-04-26T02:33:15.163Z,12.74
2023-04-26T02:35:43.169Z,12.79
2023-04-26T02:38:11.114Z,12.74
2023-04-26T02:40:39.033Z,12.77
2023-04-26T02:43:07.216Z,12.68
2023-04-26T02:45:35.157Z,12.62
2023-04-26T02:48:03.318Z,12.63
2023-04-26T02:50:32.669Z,12.60
2023-04-26T02:53:00.933Z,12.55
2023-04-26T02:55:28.951Z,12.52
2023-04-26T02:57:56.899Z,12.57
2023-04-26T03:00:25.234Z,12.55
2023-04-26T03:02:53.377Z,12.54
2023-04-26T03:05:21.625Z,12.58
2023-04-26T03:07:51.023Z,12.52
2023-04-26T03:10:19.004Z,12.57
2023-04-26T03:12:46.927Z,12.59
2023-04-26T03:15:15.102Z,12.57
2023-04-26T03:17:43.412Z,12.60
2023-04-26T03:20:12.301Z,12.56
2023-04-26T03:22:40.245Z,12.56
2023-04-26T03:25:10.281Z,12.47
2023-04-26T03:27:38.256Z,12.46
2023-04-26T03:30:07.540Z,12.40
2023-04-26T03:32:35.519Z,12.45
2023-04-26T03:35:04.753Z,12.46
2023-04-26T03:37:32.859Z,12.48
2023-04-26T03:40:00.915Z,12.39
2023-04-26T03:42:30.213Z,12.41
2023-04-26T03:44:58.149Z,12.46
2023-04-26T03:47:26.243Z,12.41
2023-04-26T03:49:54.190Z,12.51
2023-04-26T03:52:22.179Z,12.55
2023-04-26T03:54:50.138Z,12.50
2023-04-26T03:57:18.104Z,12.56
2023-04-26T03:59:47.429Z,12.56
2023-04-26T04:02:15.420Z,12.57
2023-04-26T04:04:43.605Z,12.56
2023-04-26T04:07:11.798Z,12.60
2023-04-26T04:09:39.793Z,12.61
2023-04-26T04:12:08.045Z,12.61
2023-04-26T04:14:36.000Z,12.65
2023-04-26T04:17:05.879Z,12.71
2023-04-26T04:19:33.821Z,12.62
2023-04-26T04:22:01.789Z,12.71
2023-04-26T04:24:29.833Z,12.74
2023-04-26T04:26:57.999Z,12.76
2023-04-26T04:29:25.984Z,12.78
2023-04-26T04:31:53.960Z,12.90
2023-04-26T04:34:23.882Z,12.91
2023-04-26T04:36:51.869Z,13.02
2023-04-26T04:39:19.797Z,13.22
2023-04-26T04:41:48.997Z,13.44
2023-04-26T04:44:16.981Z,13.84
2023-04-26T04:46:44.996Z,14.98
2023-04-26T04:49:13.503Z,16.84
2023-04-26T04:51:42.790Z,18.98
2023-04-26T04:54:12.159Z,20.75
2023-04-26T04:56:40.166Z,22.48
2023-04-26T04:59:08.606Z,23.59
2023-04-26T05:01:37.146Z,22.64
2023-04-26T05:04:05.318Z,22.13
2023-04-26T05:06:33.418Z,21.84
2023-04-26T05:09:02.774Z,21.84
2023-04-26T05:11:30.709Z,22.20
2023-04-26T05:13:59.829Z,22.14
2023-04-26T05:16:27.853Z,22.22
2023-04-26T05:18:55.892Z,22.12
2023-04-26T05:21:24.212Z,22.07
2023-04-26T05:23:52.310Z,21.48
2023-04-26T05:26:21.751Z,21.74
2023-04-26T05:28:49.688Z,21.85
2023-04-26T05:31:17.869Z,21.98
2023-04-26T05:33:45.937Z,22.01
2023-04-26T05:36:13.941Z,22.68
2023-04-26T05:38:42.118Z,23.34
2023-04-26T05:41:10.074Z,23.23
2023-04-26T05:43:40.454Z,23.20
2023-04-26T05:46:08.451Z,23.40
2023-04-26T05:48:36.588Z,24.54
2023-04-26T05:51:04.617Z,25.50
2023-04-26T05:53:33.789Z,25.38
2023-04-26T05:56:01.760Z,25.06
2023-04-26T05:58:29.730Z,24.98
2023-04-26T06:00:59.053Z,24.71
2023-04-26T06:03:27.175Z,25.16
2023-04-26T06:05:55.383Z,25.41
2023-04-26T06:08:23.340Z,25.44
2023-04-26T06:10:51.356Z,25.55
2023-04-26T06:13:19.268Z,25.58
2023-04-26T06:15:47.237Z,26.18
2023-04-26T06:18:16.624Z,26.40
2023-04-26T06:20:44.581Z,25.12
2023-04-26T06:23:12.499Z,24.68
2023-04-26T06:25:44.774Z,24.08
2023-04-26T06:28:12.921Z,24.28
2023-04-26T06:30:41.418Z,24.20
2023-04-26T06:33:09.794Z,23.77
2023-04-26T06:35:42.190Z,23.21
2023-04-26T06:38:12.647Z,23.25
2023-04-26T06:40:40.593Z,24.25
2023-04-26T06:43:08.578Z,25.51
2023-04-26T06:45:37.080Z,27.16
2023-04-26T06:48:05.498Z,28.72
2023-04-26T06:50:33.509Z,29.08
2023-04-26T06:53:02.798Z,29.69
2023-04-26T06:55:30.733Z,27.20
2023-04-26T06:57:58.671Z,26.51
2023-04-26T07:00:26.851Z,25.36
2023-04-26T07:02:54.972Z,25.18
2023-04-26T07:05:23.389Z,25.41
2023-04-26T07:07:51.496Z,25.06
2023-04-26T07:10:21.285Z,24.09
2023-04-26T07:12:49.188Z,22.43
2023-04-26T07:15:17.170Z,22.45
2023-04-26T07:17:45.129Z,21.70
2023-04-26T07:20:15.657Z,20.87
2023-04-26T07:22:43.660Z,20.71
2023-04-26T07:25:11.900Z,20.32
2023-04-26T07:27:41.246Z,20.15
2023-04-26T07:30:10.604Z,20.26
2023-04-26T07:32:38.642Z,19.92
2023-04-26T07:35:08.686Z,19.59
2023-04-26T07:37:36.632Z,19.98
2023-04-26T07:40:08.371Z,20.59
2023-04-26T07:42:36.332Z,21.21
2023-04-26T07:45:06.557Z,21.31
2023-04-26T07:47:34.588Z,22.19
2023-04-26T07:50:02.540Z,22.55
2023-04-26T07:52:30.506Z,22.25
2023-04-26T07:54:58.457Z,21.91
2023-04-26T07:57:26.351Z,21.36
2023-04-26T07:59:54.313Z,21.80
2023-04-26T08:02:36.700Z,22.43
2023-04-26T08:05:11.729Z,22.97
2023-04-26T08:07:39.845Z,22.20
2023-04-26T08:10:08.569Z,21.51
2023-04-26T08:12:37.237Z,20.85
2023-04-26T08:15:05.820Z,20.88
2023-04-26T08:17:35.249Z,20.58
2023-04-26T08:20:05.069Z,20.88
2023-04-26T08:22:33.046Z,21.57
2023-04-26T08:25:00.961Z,21.85
2023-04-26T08:27:29.391Z,21.38
2023-04-26T08:29:57.443Z,21.06
2023-04-26T08:32:25.403Z,20.27
2023-04-26T08:34:55.426Z,20.26
2023-04-26T08:37:23.391Z,20.65
2023-04-26T08:39:51.363Z,20.99
2023-04-26T08:42:19.402Z,21.27
2023-04-26T08:44:47.539Z,21.02
2023-04-26T08:47:17.391Z,20.32
2023-04-26T08:49:47.600Z,19.89
2023-04-26T08:52:17.296Z,19.88
2023-04-26T08:54:45.624Z,19.86
2023-04-26T08:57:13.618Z,20.06
2023-04-26T08:59:41.568Z,21.00
2023-04-26T09:02:09.714Z,21.34
2023-04-26T09:04:38.200Z,21.56
2023-04-26T09:07:06.746Z,21.03
2023-04-26T09:09:37.903Z,20.66
2023-04-26T09:12:06.126Z,20.80
2023-04-26T09:14:34.113Z,20.41
2023-04-26T09:17:02.063Z,19.82
2023-04-26T09:19:37.056Z,20.12
2023-04-26T09:22:05.161Z,20.58
2023-04-26T09:24:47.708Z,20.77
2023-04-26T09:27:16.500Z,21.61
2023-04-26T09:30:00.656Z,22.02
2023-04-26T09:32:29.299Z,22.36
2023-04-26T09:34:57.296Z,22.31
2023-04-26T09:37:25.216Z,22.18
2023-04-26T09:39:54.692Z,22.04
2023-04-26T09:42:22.677Z,21.91
2023-04-26T09:44:51.903Z,21.78
2023-04-26T09:47:19.857Z,21.63
2023-04-26T09:49:48.909Z,21.72
2023-04-26T09:52:17.069Z,21.35
2023-04-26T09:54:47.038Z,21.40
2023-04-26T09:57:17.672Z,21.11
2023-04-26T09:59:46.927Z,21.07
2023-04-26T10:02:17.719Z,21.23
2023-04-26T10:04:47.065Z,21.17
2023-04-26T10:07:15.919Z,20.87
2023-04-26T10:09:43.969Z,21.11
2023-04-26T10:12:12.524Z,21.48
2023-04-26T10:14:41.874Z,21.87
2023-04-26T10:17:09.847Z,22.00
2023-04-26T10:19:37.972Z,22.33
2023-04-26T10:22:06.979Z,23.27
2023-04-26T10:24:35.876Z,23.43
2023-04-26T10:27:04.388Z,23.74
2023-04-26T10:30:09.233Z,23.96
2023-04-26T10:33:16.476Z,24.00
2023-04-26T10:36:04.594Z,24.10
2023-04-26T10:38:32.649Z,23.82
2023-04-26T10:41:32.339Z,23.57
2023-04-26T10:44:01.673Z,23.60
2023-04-26T10:46:40.654Z,23.51
2023-04-26T10:49:18.566Z,23.05
2023-04-26T10:52:10.077Z,23.39
2023-04-26T10:54:54.419Z,24.22
2023-04-26T10:57:22.781Z,23.99
2023-04-26T11:00:21.088Z,24.02
2023-04-26T11:02:59.619Z,23.64
2023-04-26T11:05:49.865Z,24.61
2023-04-26T11:08:18.277Z,24.72
2023-04-26T11:10:50.707Z,24.87
2023-04-26T11:13:19.473Z,25.02
2023-04-26T11:15:49.035Z,25.54
2023-04-26T11:18:21.980Z,25.63
2023-04-26T11:20:49.892Z,24.81
2023-04-26T11:23:19.437Z,24.95
2023-04-26T11:25:47.434Z,25.17
2023-04-26T11:28:15.383Z,24.97
2023-04-26T11:30:43.739Z,24.79
2023-04-26T11:33:17.792Z,24.74
2023-04-26T11:35:47.636Z,25.07
2023-04-26T11:38:15.648Z,24.99
2023-04-26T11:40:43.635Z,25.00
2023-04-26T11:43:11.894Z,25.30
2023-04-26T11:45:39.913Z,25.33
2023-04-26T11:48:09.065Z,25.06
2023-04-26T11:50:38.248Z,25.37
2023-04-26T11:53:08.845Z,24.86
2023-04-26T11:55:36.936Z,24.26
2023-04-26T11:58:11.318Z,24.05
2023-04-26T12:00:39.614Z,23.99
2023-04-26T12:03:11.185Z,24.75
2023-04-26T12:05:39.457Z,24.65
2023-04-26T12:08:09.158Z,24.35
2023-04-26T12:10:37.361Z,24.23
2023-04-26T12:13:05.356Z,24.19
2023-04-26T12:15:34.744Z,24.06
2023-04-26T12:18:08.797Z,23.48
2023-04-26T12:20:37.410Z,23.36
2023-04-26T12:23:06.782Z,23.40
2023-04-26T12:25:36.837Z,23.13
2023-04-26T12:28:05.206Z,22.99
2023-04-26T12:30:33.298Z,22.63
2023-04-26T12:33:14.981Z,22.79
2023-04-26T12:35:44.846Z,23.15
2023-04-26T12:38:13.682Z,23.36
2023-04-26T12:40:44.399Z,23.58
2023-04-26T12:43:12.352Z,24.24
2023-04-26T12:45:40.350Z,24.81
2023-04-26T12:48:08.360Z,24.56
2023-04-26T12:50:36.413Z,25.37
2023-04-26T12:53:04.381Z,24.78
2023-04-26T12:55:33.022Z,24.45
2023-04-26T12:58:02.468Z,25.00
2023-04-26T13:00:30.897Z,24.92
2023-04-26T13:02:59.071Z,24.58
2023-04-26T13:05:27.224Z,24.05
2023-04-26T13:07:55.143Z,23.84
2023-04-26T13:10:23.325Z,23.86
2023-04-26T13:12:51.378Z,23.65
2023-04-26T13:15:21.665Z,22.67
2023-04-26T13:17:49.941Z,22.43
2023-04-26T13:20:17.887Z,22.45
2023-04-26T13:22:45.910Z,23.12
2023-04-26T13:25:15.733Z,23.72
2023-04-26T13:27:43.689Z,23.23
2023-04-26T13:30:13.833Z,23.01
2023-04-26T13:32:43.245Z,22.55
2023-04-26T13:35:12.169Z,22.33
2023-04-26T13:37:40.321Z,22.32
2023-04-26T13:40:11.362Z,22.17
2023-04-26T13:42:39.363Z,21.67
2023-04-26T13:45:09.508Z,21.46
2023-04-26T13:47:37.535Z,21.32
2023-04-26T13:50:08.036Z,21.01
2023-04-26T13:52:36.324Z,20.90
2023-04-26T13:55:04.478Z,21.00
2023-04-26T13:57:32.940Z,20.87
2023-04-26T14:00:00.881Z,20.95
2023-04-26T14:02:29.393Z,21.25
2023-04-26T14:04:57.906Z,21.22
2023-04-26T14:07:27.460Z,21.15
2023-04-26T14:09:55.572Z,21.01
2023-04-26T14:12:23.553Z,21.05
2023-04-26T14:14:51.772Z,21.05
2023-04-26T14:17:19.741Z,20.94
2023-04-26T14:19:47.688Z,20.82
2023-04-26T14:22:17.642Z,20.83
2023-04-26T14:24:47.147Z,20.50
2023-04-26T14:27:15.072Z,20.48
2023-04-26T14:29:43.002Z,20.75
2023-04-26T14:32:11.183Z,20.71
2023-04-26T14:34:40.083Z,20.69
2023-04-26T14:37:08.061Z,20.53
2023-04-26T14:39:36.090Z,20.64
2023-04-26T14:42:05.887Z,20.80
2023-04-26T14:44:33.888Z,20.67
2023-04-26T14:47:01.813Z,20.21
2023-04-26T14:49:29.785Z,20.11
2023-04-26T14:51:57.735Z,19.89
2023-04-26T14:54:25.676Z,19.97
2023-04-26T14:56:53.858Z,20.06
2023-04-26T14:59:23.156Z,20.03
2023-04-26T15:01:53.348Z,20.05
2023-04-26T15:04:21.656Z,20.10
2023-04-26T15:06:49.719Z,20.13
2023-04-26T15:09:17.726Z,20.00
2023-04-26T15:11:45.692Z,19.94
2023-04-26T15:14:13.638Z,19.79
2023-04-26T15:16:42.985Z,19.56
2023-04-26T15:19:10.926Z,19.50
2023-04-26T15:21:38.865Z,19.57
2023-04-26T15:24:07.800Z,19.44
2023-04-26T15:26:35.776Z,19.46
2023-04-26T15:29:03.767Z,19.30
2023-04-26T15:31:32.078Z,19.16
2023-04-26T15:34:02.552Z,19.04
2023-04-26T15:36:30.564Z,18.82
2023-04-26T15:38:58.530Z,18.68
2023-04-26T15:41:26.491Z,18.49
2023-04-26T15:43:54.807Z,18.43
2023-04-26T15:46:22.957Z,18.39
2023-04-26T15:48:50.982Z,18.15
2023-04-26T15:51:20.322Z,18.13
2023-04-26T15:53:48.256Z,18.06
2023-04-26T15:56:16.488Z,17.86
2023-04-26T15:58:45.134Z,17.83
2023-04-26T16:01:13.182Z,17.77
2023-04-26T16:03:43.380Z,17.77
2023-04-26T16:06:13.609Z,17.71
2023-04-26T16:08:43.078Z,17.48
2023-04-26T16:11:11.280Z,16.54
2023-04-26T16:13:39.175Z,15.85
2023-04-26T16:16:08.116Z,15.25
2023-04-26T16:18:36.182Z,14.57
2023-04-26T16:21:07.588Z,14.25
2023-04-26T16:23:35.728Z,13.87
2023-04-26T16:26:05.069Z,13.68
2023-04-26T16:28:33.044Z,13.62
2023-04-26T16:31:01.081Z,13.49
2023-04-26T16:33:29.809Z,13.36
2023-04-26T16:35:57.805Z,13.22
2023-04-26T16:38:25.727Z,13.11
2023-04-26T16:41:01.405Z,13.10
2023-04-26T16:43:31.139Z,13.13
2023-04-26T16:45:59.999Z,13.18
2023-04-26T16:48:27.968Z,13.24
2023-04-26T16:50:55.887Z,13.24
2023-04-26T16:53:23.856Z,13.22
2023-04-26T16:55:52.262Z,13.23
2023-04-26T16:58:20.250Z,13.23
2023-04-26T17:00:49.587Z,13.19
2023-04-26T17:03:17.763Z,13.25
2023-04-26T17:05:47.507Z,13.30
2023-04-26T17:08:15.719Z,13.25
2023-04-26T17:10:43.698Z,13.27
2023-04-26T17:13:12.757Z,13.29
2023-04-26T17:15:40.913Z,13.28
2023-04-26T17:18:10.898Z,13.25
2023-04-26T17:20:38.978Z,13.13
2023-04-26T17:23:08.625Z,13.19
2023-04-26T17:25:36.655Z,13.19
2023-04-26T17:28:04.905Z,13.12
2023-04-26T17:30:32.814Z,13.19
2023-04-26T17:33:00.838Z,13.20
2023-04-26T17:35:30.270Z,13.23
2023-04-26T17:37:58.247Z,13.25
2023-04-26T17:40:26.204Z,13.23
2023-04-26T17:42:54.158Z,13.26
2023-04-26T17:45:22.212Z,13.26
2023-04-26T17:47:50.236Z,13.25
2023-04-26T17:50:20.998Z,13.27
2023-04-26T17:52:50.479Z,13.24
2023-04-26T17:55:18.627Z,13.17
2023-04-26T17:57:46.854Z,13.18
2023-04-26T18:00:16.052Z,13.20
2023-04-26T18:02:44.225Z,13.24
2023-04-26T18:05:13.401Z,13.25
2023-04-26T18:07:41.403Z,13.29
2023-04-26T18:10:11.471Z,13.31
2023-04-26T18:12:39.932Z,13.34
2023-04-26T18:15:09.066Z,13.36
2023-04-26T18:17:37.133Z,13.28
2023-04-26T18:20:06.673Z,13.24
2023-04-26T18:22:34.650Z,13.21
2023-04-26T18:25:03.122Z,13.16
2023-04-26T18:27:32.429Z,13.20
2023-04-26T18:30:00.426Z,13.17
2023-04-26T18:32:28.382Z,13.16
2023-04-26T18:34:56.313Z,13.11
2023-04-26T18:37:24.365Z,13.08
2023-04-26T18:39:52.307Z,13.07
2023-04-26T18:42:20.260Z,13.06
2023-04-26T18:44:49.629Z,13.07
2023-04-26T18:47:17.575Z,13.09
2023-04-26T18:49:45.558Z,13.07
2023-04-26T18:52:13.542Z,13.04
2023-04-26T18:54:41.672Z,13.01
2023-04-26T18:57:10.662Z,13.00
2023-04-26T18:59:38.766Z,13.02
2023-04-26T19:02:08.291Z,13.03
2023-04-26T19:04:36.548Z,12.96
2023-04-26T19:07:04.650Z,12.96
2023-04-26T19:09:42.725Z,12.91
2023-04-26T19:12:18.735Z,12.92
2023-04-26T19:14:46.677Z,12.92
2023-04-26T19:17:16.029Z,12.97
2023-04-26T19:19:44.026Z,12.95
2023-04-26T19:22:11.984Z,12.89
2023-04-26T19:24:39.916Z,12.94
2023-04-26T19:27:07.859Z,12.93
2023-04-26T19:29:36.086Z,12.91
2023-04-26T19:32:06.860Z,12.98
2023-04-26T19:34:38.878Z,13.00
2023-04-26T19:37:07.177Z,12.95
2023-04-26T19:39:35.129Z,12.93
2023-04-26T19:42:03.427Z,12.95
2023-04-26T19:44:31.835Z,13.00
2023-04-26T19:46:59.852Z,12.94
2023-04-26T19:49:29.137Z,12.97
2023-04-26T19:51:58.579Z,12.88
2023-04-26T19:54:26.645Z,12.89
2023-04-26T19:56:54.573Z,12.77
2023-04-26T19:59:22.641Z,12.86
2023-04-26T20:01:53.198Z,12.81
2023-04-26T20:04:22.026Z,12.85
2023-04-26T20:06:50.173Z,12.83
2023-04-26T20:09:19.535Z,12.71
2023-04-26T20:11:47.526Z,12.73
2023-04-26T20:14:16.150Z,12.79
2023-04-26T20:16:44.374Z,12.75
2023-04-26T20:19:12.401Z,12.85
2023-04-26T20:21:40.489Z,12.90
2023-04-26T20:24:08.919Z,12.82
2023-04-26T20:26:38.258Z,12.74
2023-04-26T20:29:06.770Z,12.65
2023-04-26T20:31:34.969Z,12.60
2023-04-26T20:34:03.002Z,12.54
2023-04-26T20:36:30.936Z,12.49
2023-04-26T20:38:58.921Z,12.49
2023-04-26T20:41:26.876Z,12.41
2023-04-26T20:43:56.573Z,12.44
2023-04-26T20:46:24.571Z,12.37
2023-04-26T20:48:52.562Z,12.35
2023-04-26T20:51:20.512Z,12.40
2023-04-26T20:53:48.465Z,12.29
2023-04-26T20:56:16.436Z,12.39
2023-04-26T20:58:44.437Z,12.25
2023-04-26T21:01:13.823Z,12.20
2023-04-26T21:03:42.023Z,12.17
2023-04-26T21:06:10.047Z,12.20
2023-04-26T21:08:38.010Z,12.14
2023-04-26T21:11:06.412Z,12.17
2023-04-26T21:13:34.372Z,12.13
2023-04-26T21:16:02.621Z,12.17
2023-04-26T21:18:31.931Z,12.17
2023-04-26T21:20:59.929Z,12.24
2023-04-26T21:23:28.072Z,12.27
2023-04-26T21:25:56.027Z,12.22
2023-04-26T21:28:24.001Z,12.13
2023-04-26T21:30:51.972Z,11.85
2023-04-26T21:33:20.036Z,11.80
2023-04-26T21:35:49.364Z,11.70
2023-04-26T21:38:17.324Z,11.55
2023-04-26T21:40:45.241Z,11.59
2023-04-26T21:43:15.549Z,11.60
2023-04-26T21:45:43.486Z,11.52
2023-04-26T21:48:11.403Z,11.48
2023-04-26T21:50:39.312Z,11.49
2023-04-26T21:53:08.631Z,11.51
2023-04-26T21:55:36.600Z,11.54
2023-04-26T21:58:04.515Z,11.53
2023-04-26T22:00:32.798Z,11.51
2023-04-26T22:03:01.171Z,11.51
2023-04-26T22:05:29.371Z,11.46
2023-04-26T22:07:57.325Z,11.54
2023-04-26T22:10:26.905Z,11.53
2023-04-26T22:12:54.873Z,11.56
2023-04-26T22:15:22.888Z,11.54
2023-04-26T22:17:50.986Z,11.59
2023-04-26T22:20:19.004Z,11.52
2023-04-26T22:22:47.099Z,11.58
2023-04-26T22:25:15.027Z,11.58
2023-04-26T22:27:44.339Z,11.53
2023-04-26T22:30:24.756Z,11.61
2023-04-26T22:32:54.721Z,11.61
2023-04-26T22:35:23.248Z,11.58
2023-04-26T22:37:51.239Z,11.55
2023-04-26T22:40:19.372Z,11.49
2023-04-26T22:42:48.655Z,11.44
2023-04-26T22:45:16.782Z,11.51
2023-04-26T22:47:44.774Z,11.47
2023-04-26T22:50:12.918Z,11.45
2023-04-26T22:52:41.090Z,11.36
2023-04-26T22:55:10.146Z,11.36
2023-04-26T22:57:39.267Z,11.28
2023-04-26T23:00:12.451Z,11.36
2023-04-26T23:02:40.810Z,11.35
2023-04-26T23:05:10.666Z,11.26
2023-04-26T23:07:38.652Z,11.14
2023-04-26T23:10:07.538Z,11.15
2023-04-26T23:12:36.045Z,11.08
2023-04-26T23:15:05.164Z,10.91
2023-04-26T23:17:34.855Z,10.92
2023-04-26T23:20:08.175Z,10.91
2023-04-26T23:22:36.225Z,10.86
2023-04-26T23:25:04.187Z,10.83
2023-04-26T23:27:32.140Z,10.75
2023-04-26T23:30:00.212Z,10.60
2023-04-26T23:32:28.243Z,10.53
2023-04-26T23:34:57.616Z,10.57
2023-04-26T23:37:25.561Z,10.60
2023-04-26T23:39:53.467Z,10.49
2023-04-26T23:42:21.584Z,10.43
2023-04-26T23:44:49.554Z,10.33
2023-04-26T23:47:17.489Z,10.38
2023-04-26T23:49:45.561Z,10.34
2023-04-26T23:52:14.907Z,10.38
2023-04-26T23:54:42.837Z,10.27
2023-04-26T23:57:10.753Z,10.26
2023-04-26T23:59:38.672Z,10.18
